Yichun Heilongjiang, China
Current Conditions -  °F | °C
As of 1:00 AM on Tuesday 25 Nov 2014 (Local Time) from ZYHB Reporting Station
Smoke Smoke  
Wind Chill:   Ceiling: Unl
Heat Index:   Visibility: 2.5mi
Dew Point:   Wind: 2mph
Humidity: 85%   Direction: NA
Pressure: 30.3"   Gusts: NA
Location:  47.7°N, 128.9°E
Report Text: ZYHB 241700Z VRB01MPS 4000 FU NSC M15/M17 Q1026 NOSIG
Loading
Personal Weather Stations






























Interactive Weather Map New forecast layout! Learn more

10-Day Weather Forecast

Advertisements
Track Severe Weather on mobile